createdAt,value
2022-11-01T00:01:27.998Z,13.48
2022-11-01T00:03:55.418Z,13.88
2022-11-01T00:06:23.017Z,13.13
2022-11-01T00:08:49.972Z,13.13
2022-11-01T00:11:18.145Z,12.40
2022-11-01T00:13:47.073Z,11.93
2022-11-01T00:16:14.924Z,11.50
2022-11-01T00:18:42.134Z,10.73
2022-11-01T00:21:09.801Z,10.30
2022-11-01T00:23:37.277Z,11.20
2022-11-01T00:26:04.723Z,10.77
2022-11-01T00:28:32.984Z,10.45
2022-11-01T00:31:00.237Z,10.68
2022-11-01T00:33:27.517Z,11.18
2022-11-01T00:35:54.566Z,10.80
2022-11-01T00:38:21.678Z,11.02
2022-11-01T00:40:48.681Z,10.25
2022-11-01T00:43:16.267Z,10.68
2022-11-01T00:45:45.154Z,10.50
2022-11-01T00:48:15.323Z,11.95
2022-11-01T00:50:42.369Z,10.60
2022-11-01T00:53:12.340Z,10.90
2022-11-01T00:55:39.622Z,10.95
2022-11-01T00:58:06.876Z,11.40
2022-11-01T01:00:33.954Z,11.38
2022-11-01T01:03:01.340Z,11.73
2022-11-01T01:05:28.692Z,10.32
2022-11-01T01:07:55.707Z,10.88
2022-11-01T01:10:22.746Z,11.02
2022-11-01T01:12:49.742Z,10.60
2022-11-01T01:15:16.830Z,10.57
2022-11-01T01:17:43.898Z,10.20
2022-11-01T01:20:11.439Z,10.32
2022-11-01T01:22:38.499Z,10.05
2022-11-01T01:25:05.942Z,10.27
2022-11-01T01:27:32.934Z,10.60
2022-11-01T01:29:59.906Z,11.05
2022-11-01T01:32:26.904Z,12.13
2022-11-01T01:34:54.031Z,12.48
2022-11-01T01:37:21.018Z,11.48
2022-11-01T01:39:48.079Z,11.85
2022-11-01T01:42:36.689Z,11.43
2022-11-01T01:45:27.308Z,10.43
2022-11-01T01:47:57.477Z,9.70
2022-11-01T01:50:30.460Z,11.00
2022-11-01T01:53:03.730Z,10.20
2022-11-01T01:55:53.168Z,10.65
2022-11-01T01:58:24.987Z,10.80
2022-11-01T02:00:54.279Z,9.55
2022-11-01T02:03:23.604Z,10.35
2022-11-01T02:06:02.872Z,10.32
2022-11-01T02:08:30.400Z,10.88
2022-11-01T02:11:00.727Z,10.45
2022-11-01T02:13:28.984Z,9.38
2022-11-01T02:15:55.894Z,9.57
2022-11-01T02:18:45.838Z,8.77
2022-11-01T02:21:31.202Z,9.95
2022-11-01T02:24:11.717Z,9.45
2022-11-01T02:27:16.356Z,8.50
2022-11-01T02:30:07.920Z,8.75
2022-11-01T02:32:53.570Z,9.55
2022-11-01T02:35:33.132Z,9.63
2022-11-01T02:38:49.949Z,10.38
2022-11-01T02:41:25.044Z,10.27
2022-11-01T02:43:58.117Z,9.90
2022-11-01T02:46:46.438Z,10.00
2022-11-01T02:49:16.106Z,9.63
2022-11-01T02:51:45.221Z,9.90
2022-11-01T02:54:21.988Z,10.13
2022-11-01T02:56:50.849Z,9.65
2022-11-01T02:59:25.202Z,9.45
2022-11-01T03:02:07.009Z,9.18
2022-11-01T03:04:35.322Z,9.25
2022-11-01T03:07:07.660Z,9.32
2022-11-01T03:09:36.377Z,8.65
2022-11-01T03:12:20.504Z,9.27
2022-11-01T03:15:05.333Z,8.63
2022-11-01T03:17:43.871Z,8.30
2022-11-01T03:20:22.783Z,9.27
2022-11-01T03:22:58.842Z,8.37
2022-11-01T03:25:41.763Z,8.20
2022-11-01T03:28:42.906Z,9.05
2022-11-01T03:31:32.014Z,8.88
2022-11-01T03:34:08.639Z,9.43
2022-11-01T03:36:41.179Z,10.52
2022-11-01T03:39:42.417Z,9.50
2022-11-01T03:42:14.901Z,10.18
2022-11-01T03:44:45.589Z,9.80
2022-11-01T03:47:13.495Z,9.70
2022-11-01T03:49:40.437Z,9.68
2022-11-01T03:52:08.222Z,11.38
2022-11-01T03:54:35.198Z,10.90
2022-11-01T03:57:02.301Z,10.95
2022-11-01T03:59:29.435Z,10.30
2022-11-01T04:01:56.529Z,9.70
2022-11-01T04:04:23.697Z,10.98
2022-11-01T04:06:51.485Z,10.32
2022-11-01T04:09:18.468Z,11.50
2022-11-01T04:11:45.458Z,10.25
2022-11-01T04:14:30.787Z,11.32
2022-11-01T04:17:16.156Z,10.52
2022-11-01T04:20:01.538Z,9.65
2022-11-01T04:22:29.761Z,9.25
2022-11-01T04:24:56.745Z,8.88
2022-11-01T04:27:23.728Z,8.60
2022-11-01T04:29:50.665Z,8.25
2022-11-01T04:32:17.643Z,8.32
2022-11-01T04:34:44.679Z,7.75
2022-11-01T04:37:12.375Z,7.70
2022-11-01T04:39:39.490Z,7.25
2022-11-01T04:42:06.573Z,7.47
2022-11-01T04:44:33.601Z,6.65
2022-11-01T04:47:00.685Z,7.15
2022-11-01T04:49:27.651Z,6.53
2022-11-01T04:51:54.636Z,6.80
2022-11-01T04:54:21.618Z,6.95
2022-11-01T04:56:48.666Z,6.80
2022-11-01T04:59:15.665Z,6.00
2022-11-01T05:01:42.785Z,6.75
2022-11-01T05:04:09.804Z,6.03
2022-11-01T05:06:36.798Z,5.95
2022-11-01T05:09:03.861Z,6.00
2022-11-01T05:11:30.927Z,5.97
2022-11-01T05:13:57.908Z,5.95
2022-11-01T05:16:24.988Z,5.25
2022-11-01T05:18:51.969Z,6.18
2022-11-01T05:21:19.027Z,6.03
2022-11-01T05:23:49.214Z,5.82
2022-11-01T05:26:16.229Z,5.50
2022-11-01T05:28:43.146Z,5.88
2022-11-01T05:31:10.163Z,5.82
2022-11-01T05:33:37.073Z,5.10
2022-11-01T05:36:04.148Z,5.65
2022-11-01T05:38:31.245Z,6.03
2022-11-01T05:40:58.319Z,5.50
2022-11-01T05:43:25.327Z,4.97
2022-11-01T05:45:52.250Z,4.70
2022-11-01T05:48:19.200Z,5.78
2022-11-01T05:50:47.055Z,4.78
2022-11-01T05:53:14.371Z,4.88
2022-11-01T05:55:41.362Z,4.70
2022-11-01T05:58:09.018Z,4.47
2022-11-01T06:00:36.029Z,4.63
2022-11-01T06:03:03.670Z,4.53
2022-11-01T06:05:31.300Z,4.60
2022-11-01T06:08:00.644Z,4.78
2022-11-01T06:10:28.146Z,4.93
2022-11-01T06:12:55.524Z,4.43
2022-11-01T06:15:22.868Z,4.10
2022-11-01T06:17:56.299Z,4.38
2022-11-01T06:20:23.420Z,4.40
2022-11-01T06:22:50.373Z,4.50
2022-11-01T06:25:17.418Z,4.07
2022-11-01T06:27:44.375Z,4.75
2022-11-01T06:30:11.813Z,3.75
2022-11-01T06:32:38.907Z,3.83
2022-11-01T06:35:06.211Z,3.53
2022-11-01T06:37:33.324Z,3.40
2022-11-01T06:40:00.304Z,3.58
2022-11-01T06:42:27.309Z,3.20
2022-11-01T06:46:04.914Z,3.33
2022-11-01T06:48:31.963Z,3.05
2022-11-01T06:50:58.871Z,3.30
2022-11-01T06:53:26.124Z,2.90
2022-11-01T06:55:53.038Z,3.85
2022-11-01T06:58:20.150Z,2.92
2022-11-01T07:00:47.274Z,3.10
2022-11-01T07:03:14.800Z,2.67
2022-11-01T07:05:42.492Z,3.13
2022-11-01T07:08:12.966Z,3.08
2022-11-01T07:10:42.645Z,3.35
2022-11-01T07:13:12.081Z,3.17
2022-11-01T07:15:39.152Z,2.83
2022-11-01T07:18:10.670Z,3.58
2022-11-01T07:20:42.105Z,3.03
2022-11-01T07:23:15.890Z,2.88
2022-11-01T07:25:43.697Z,2.70
2022-11-01T07:28:10.964Z,3.08
2022-11-01T07:30:40.059Z,3.20
2022-11-01T07:33:07.293Z,3.15
2022-11-01T07:35:35.195Z,3.22
2022-11-01T07:38:05.069Z,2.92
2022-11-01T07:40:36.396Z,3.03
2022-11-01T07:43:04.883Z,2.47
2022-11-01T07:45:33.497Z,2.80
2022-11-01T07:48:21.305Z,2.55
2022-11-01T07:50:48.238Z,2.53
2022-11-01T07:53:17.738Z,2.40
2022-11-01T07:55:46.210Z,2.25
2022-11-01T07:58:14.012Z,2.40
2022-11-01T08:00:43.909Z,2.53
2022-11-01T08:03:14.029Z,2.80
2022-11-01T08:08:08.591Z,2.55
2022-11-01T08:10:36.769Z,2.50
2022-11-01T08:13:13.308Z,2.40
2022-11-01T08:15:40.460Z,2.30
2022-11-01T08:18:07.513Z,2.47
2022-11-01T08:20:34.696Z,2.17
2022-11-01T08:23:02.091Z,2.35
2022-11-01T08:25:29.458Z,2.33
2022-11-01T08:28:02.477Z,2.20
2022-11-01T08:30:29.492Z,2.17
2022-11-01T08:33:02.036Z,2.00
2022-11-01T08:35:30.301Z,1.95
2022-11-01T08:37:59.246Z,1.90
2022-11-01T08:40:28.394Z,1.80
2022-11-01T08:42:55.543Z,1.67
2022-11-01T08:45:22.609Z,1.48
2022-11-01T08:47:49.560Z,1.70
2022-11-01T08:50:17.832Z,1.63
2022-11-01T08:52:44.811Z,1.70
2022-11-01T08:55:12.044Z,1.60
2022-11-01T08:57:39.021Z,1.70
2022-11-01T09:00:10.369Z,1.42
2022-11-01T09:02:37.525Z,1.92
2022-11-01T09:05:06.713Z,1.67
2022-11-01T09:07:35.689Z,1.45
2022-11-01T09:10:02.748Z,1.70
2022-11-01T09:12:29.882Z,1.85
2022-11-01T09:14:56.891Z,1.58
2022-11-01T09:17:23.884Z,1.58
2022-11-01T09:19:50.938Z,1.70
2022-11-01T09:22:18.362Z,1.10
2022-11-01T09:24:45.673Z,1.10
2022-11-01T09:27:12.949Z,1.30
2022-11-01T09:29:40.574Z,1.10
2022-11-01T09:32:07.518Z,1.10
2022-11-01T09:34:35.026Z,1.00
2022-11-01T09:37:02.468Z,1.30
2022-11-01T09:39:29.349Z,1.35
2022-11-01T09:42:01.886Z,0.80
2022-11-01T09:44:36.649Z,1.02
2022-11-01T09:47:08.464Z,1.25
2022-11-01T09:49:40.972Z,1.00
2022-11-01T09:52:10.739Z,1.17
2022-11-01T09:54:37.875Z,1.10
2022-11-01T09:57:31.386Z,1.08
2022-11-01T10:00:01.197Z,1.40
2022-11-01T10:05:27.633Z,0.93
2022-11-01T10:08:02.766Z,1.20
2022-11-01T10:10:48.529Z,1.30
2022-11-01T10:13:35.277Z,1.02
2022-11-01T10:16:02.289Z,1.17
2022-11-01T10:18:31.513Z,1.20
2022-11-01T10:21:03.081Z,1.20
2022-11-01T10:23:48.711Z,1.35
2022-11-01T10:26:23.277Z,1.30
2022-11-01T10:29:29.224Z,1.52
2022-11-01T10:31:57.986Z,1.13
2022-11-01T10:34:36.585Z,1.15
2022-11-01T10:37:25.840Z,1.20
2022-11-01T10:40:00.172Z,1.10
2022-11-01T10:42:30.463Z,1.38
2022-11-01T10:45:07.573Z,1.33
2022-11-01T10:47:35.109Z,1.55
2022-11-01T10:50:15.616Z,1.02
2022-11-01T10:53:02.036Z,1.83
2022-11-01T10:55:50.775Z,1.20
2022-11-01T10:58:28.170Z,1.10
2022-11-01T11:00:55.318Z,1.13
2022-11-01T11:03:26.111Z,1.25
2022-11-01T11:05:54.653Z,1.23
2022-11-01T11:08:24.570Z,1.00
2022-11-01T11:10:51.931Z,1.33
2022-11-01T11:13:25.251Z,1.35
2022-11-01T11:15:56.721Z,1.27
2022-11-01T11:18:33.964Z,1.30
2022-11-01T11:21:08.687Z,1.08
2022-11-01T11:23:42.352Z,1.73
2022-11-01T11:26:13.567Z,1.10
2022-11-01T11:28:46.148Z,1.30
2022-11-01T11:31:34.187Z,1.23
2022-11-01T11:34:19.887Z,1.02
2022-11-01T11:36:53.786Z,1.23
2022-11-01T11:39:31.393Z,1.10
2022-11-01T11:42:24.406Z,1.50
2022-11-01T11:44:56.972Z,1.50
2022-11-01T11:47:34.713Z,1.27
2022-11-01T11:50:16.743Z,1.40
2022-11-01T11:52:43.740Z,1.48
2022-11-01T11:55:25.939Z,1.15
2022-11-01T11:57:55.188Z,1.42
2022-11-01T12:00:24.427Z,1.23
2022-11-01T12:02:51.435Z,1.80
2022-11-01T12:05:22.636Z,1.40
2022-11-01T12:07:52.246Z,1.65
2022-11-01T12:10:38.241Z,1.50
2022-11-01T12:13:33.930Z,1.10
2022-11-01T12:16:24.846Z,1.30
2022-11-01T12:18:53.678Z,1.30
2022-11-01T12:21:42.967Z,1.67
2022-11-01T12:24:24.702Z,1.40
2022-11-01T12:26:55.543Z,1.15
2022-11-01T12:29:45.112Z,1.10
2022-11-01T12:32:20.949Z,1.20
2022-11-01T12:34:50.315Z,1.38
2022-11-01T12:37:34.312Z,1.00
2022-11-01T12:40:09.535Z,1.60
2022-11-01T12:42:46.182Z,1.52
2022-11-01T12:45:25.151Z,1.08
2022-11-01T12:48:01.135Z,1.33
2022-11-01T12:50:34.488Z,1.23
2022-11-01T12:53:06.236Z,1.25
2022-11-01T12:55:42.065Z,1.67
2022-11-01T12:58:19.317Z,1.65
2022-11-01T13:00:55.002Z,1.63
2022-11-01T13:03:59.470Z,1.80
2022-11-01T13:06:45.251Z,1.50
2022-11-01T13:09:52.126Z,1.48
2022-11-01T13:12:45.442Z,1.80
2022-11-01T13:15:49.109Z,2.05
2022-11-01T13:18:53.627Z,1.83
2022-11-01T13:21:39.017Z,2.15
2022-11-01T13:24:27.152Z,2.03
2022-11-01T13:27:30.932Z,1.92
2022-11-01T13:30:24.257Z,1.92
2022-11-01T13:32:55.712Z,1.92
2022-11-01T13:35:40.611Z,2.05
2022-11-01T13:38:31.986Z,2.47
2022-11-01T13:41:19.849Z,1.75
2022-11-01T13:43:57.769Z,2.08
2022-11-01T13:46:33.573Z,2.17
2022-11-01T13:49:09.647Z,1.70
2022-11-01T13:51:58.181Z,2.17
2022-11-01T13:54:30.811Z,2.20
2022-11-01T13:57:13.145Z,2.35
2022-11-01T13:59:44.456Z,2.28
2022-11-01T14:02:23.970Z,1.80
2022-11-01T14:05:04.846Z,2.30
2022-11-01T14:07:37.972Z,2.00
2022-11-01T14:10:20.174Z,1.73
2022-11-01T14:13:07.005Z,2.05
2022-11-01T14:15:39.468Z,2.10
2022-11-01T14:18:11.977Z,2.10
2022-11-01T14:20:40.356Z,1.88
2022-11-01T14:23:27.354Z,1.80
2022-11-01T14:26:19.287Z,1.80
2022-11-01T14:28:47.973Z,2.33
2022-11-01T14:31:19.124Z,2.42
2022-11-01T14:33:48.449Z,2.10
2022-11-01T14:36:18.581Z,2.30
2022-11-01T14:39:36.388Z,2.08
2022-11-01T14:42:07.964Z,1.80
2022-11-01T14:44:39.974Z,2.20
2022-11-01T14:47:27.642Z,2.50
2022-11-01T14:49:59.076Z,2.50
2022-11-01T14:52:32.334Z,1.83
2022-11-01T14:55:26.993Z,2.17
2022-11-01T14:58:18.786Z,2.17
2022-11-01T15:00:47.316Z,2.00
2022-11-01T15:03:15.238Z,2.40
2022-11-01T15:05:48.635Z,2.13
2022-11-01T15:08:40.841Z,6.00
2022-11-01T15:11:08.473Z,15.82
2022-11-01T15:13:40.864Z,2.25
2022-11-01T15:16:26.855Z,2.60
2022-11-01T15:19:13.380Z,2.20
2022-11-01T15:21:46.968Z,2.17
2022-11-01T15:24:24.423Z,2.67
2022-11-01T15:26:52.597Z,2.38
2022-11-01T15:29:22.613Z,2.67
2022-11-01T15:31:57.417Z,2.55
2022-11-01T15:34:34.527Z,2.38
2022-11-01T15:37:19.988Z,2.30
2022-11-01T15:39:47.030Z,2.38
2022-11-01T15:42:16.765Z,2.25
2022-11-01T15:44:46.204Z,2.28
2022-11-01T15:49:59.324Z,2.20
2022-11-01T15:52:31.970Z,2.13
2022-11-01T15:55:07.492Z,2.45
2022-11-01T15:57:44.196Z,2.50
2022-11-01T16:00:22.449Z,2.53
2022-11-01T16:03:04.564Z,2.25
2022-11-01T16:05:49.002Z,2.25
2022-11-01T16:08:24.320Z,2.65
2022-11-01T16:10:51.568Z,2.80
2022-11-01T16:13:20.276Z,2.20
2022-11-01T16:16:03.857Z,2.30
2022-11-01T16:18:48.986Z,2.25
2022-11-01T16:21:19.251Z,2.38
2022-11-01T16:24:12.261Z,2.40
2022-11-01T16:26:55.969Z,2.38
2022-11-01T16:30:00.164Z,2.25
2022-11-01T16:32:30.737Z,2.05
2022-11-01T16:35:00.159Z,2.42
2022-11-01T16:37:32.800Z,2.65
2022-11-01T16:40:23.631Z,2.65
2022-11-01T16:42:50.700Z,2.65
2022-11-01T16:45:17.926Z,2.55
2022-11-01T16:47:44.945Z,2.28
2022-11-01T16:50:18.403Z,2.53
2022-11-01T16:52:45.372Z,2.50
2022-11-01T16:55:12.501Z,2.50
2022-11-01T16:57:39.815Z,2.20
2022-11-01T17:00:14.971Z,2.30
2022-11-01T17:02:41.990Z,2.72
2022-11-01T17:05:21.187Z,2.55
2022-11-01T17:07:48.703Z,2.08
2022-11-01T17:10:25.775Z,2.20
2022-11-01T17:12:53.970Z,2.45
2022-11-01T17:15:20.937Z,2.50
2022-11-01T17:17:49.090Z,2.35
2022-11-01T17:20:26.882Z,2.67
2022-11-01T17:22:55.837Z,2.47
2022-11-01T17:25:28.798Z,2.60
2022-11-01T17:27:56.727Z,2.47
2022-11-01T17:30:23.771Z,3.15
2022-11-01T17:32:50.730Z,2.60
2022-11-01T17:35:20.346Z,3.05
2022-11-01T17:37:53.054Z,2.08
2022-11-01T17:40:22.732Z,3.30
2022-11-01T17:42:49.766Z,2.20
2022-11-01T17:45:16.970Z,2.75
2022-11-01T17:47:45.136Z,3.03
2022-11-01T17:50:16.532Z,2.67
2022-11-01T17:52:43.821Z,2.60
2022-11-01T17:55:12.076Z,2.85
2022-11-01T17:57:40.751Z,2.33
2022-11-01T18:00:08.592Z,3.00
2022-11-01T18:02:42.266Z,2.75
2022-11-01T18:05:09.566Z,2.63
2022-11-01T18:07:44.323Z,2.53
2022-11-01T18:10:27.322Z,2.45
2022-11-01T18:13:26.039Z,2.63
2022-11-01T18:16:00.709Z,2.70
2022-11-01T18:19:06.857Z,2.85
2022-11-01T18:21:52.567Z,2.72
2022-11-01T18:24:44.617Z,3.08
2022-11-01T18:27:12.796Z,2.40
2022-11-01T18:29:46.354Z,2.85
2022-11-01T18:32:19.713Z,2.70
2022-11-01T18:35:10.138Z,2.50
2022-11-01T18:38:22.156Z,2.97
2022-11-01T18:40:59.749Z,2.40
2022-11-01T18:43:35.024Z,3.63
2022-11-01T18:46:26.700Z,3.58
2022-11-01T18:49:00.992Z,3.15
2022-11-01T18:51:31.313Z,2.53
2022-11-01T18:54:14.259Z,2.90
2022-11-01T18:56:47.896Z,2.67
2022-11-01T18:59:41.716Z,2.20
2022-11-01T19:02:19.650Z,2.05
2022-11-01T19:04:48.252Z,2.83
2022-11-01T19:07:22.950Z,2.55
2022-11-01T19:09:54.487Z,2.45
2022-11-01T19:12:29.829Z,2.55
2022-11-01T19:15:16.397Z,2.10
2022-11-01T19:17:44.988Z,2.50
2022-11-01T19:20:28.626Z,2.80
2022-11-01T19:23:01.177Z,3.28
2022-11-01T19:25:33.033Z,2.45
2022-11-01T19:32:03.514Z,2.80
2022-11-01T19:34:37.356Z,2.80
2022-11-01T19:37:16.566Z,2.58
2022-11-01T19:39:43.739Z,2.72
2022-11-01T19:42:28.096Z,2.88
2022-11-01T19:44:57.995Z,2.50
2022-11-01T19:47:36.914Z,2.38
2022-11-01T19:50:14.328Z,2.30
2022-11-01T19:52:47.282Z,2.33
2022-11-01T19:55:36.801Z,2.40
2022-11-01T19:58:22.857Z,2.35
2022-11-01T20:00:50.009Z,2.45
2022-11-01T20:03:48.806Z,2.75
2022-11-01T20:06:50.115Z,2.42
2022-11-01T20:09:21.475Z,2.97
2022-11-01T20:11:49.245Z,2.60
2022-11-01T20:14:16.497Z,2.95
2022-11-01T20:16:43.624Z,3.00
2022-11-01T20:19:13.281Z,2.80
2022-11-01T20:21:44.468Z,3.03
2022-11-01T20:24:11.745Z,2.90
2022-11-01T20:26:41.144Z,2.70
2022-11-01T20:29:08.957Z,3.25
2022-11-01T20:31:35.936Z,3.38
2022-11-01T20:34:03.594Z,4.30
2022-11-01T20:40:56.353Z,4.65
2022-11-01T20:43:24.356Z,3.60
2022-11-01T20:45:52.299Z,2.90
2022-11-01T20:48:51.320Z,3.33
2022-11-01T20:51:18.460Z,3.08
2022-11-01T20:54:28.306Z,2.75
2022-11-01T20:56:55.342Z,3.03
2022-11-01T20:59:22.326Z,2.92
2022-11-01T21:01:49.576Z,3.30
2022-11-01T21:04:17.215Z,3.45
2022-11-01T21:06:44.374Z,3.10
2022-11-01T21:09:36.176Z,2.45
2022-11-01T21:12:03.222Z,2.78
2022-11-01T21:18:34.771Z,2.80
2022-11-01T21:21:14.080Z,2.92
2022-11-01T21:23:44.787Z,3.40
2022-11-01T21:26:43.496Z,4.50
2022-11-01T21:29:48.400Z,6.35
2022-11-01T21:32:24.875Z,5.28
2022-11-01T21:35:29.716Z,5.70
2022-11-01T21:37:56.916Z,5.70
2022-11-01T21:40:36.822Z,5.57
2022-11-01T21:43:13.869Z,4.50
2022-11-01T21:45:56.513Z,4.07
2022-11-01T21:48:33.565Z,3.75
2022-11-01T21:51:00.569Z,3.65
2022-11-01T21:53:27.592Z,3.75
2022-11-01T21:55:54.589Z,3.20
2022-11-01T21:58:22.062Z,3.70
2022-11-01T22:00:49.082Z,3.72
2022-11-01T22:04:23.331Z,4.15
2022-11-01T22:06:51.914Z,4.25
2022-11-01T22:09:20.193Z,4.00
2022-11-01T22:11:47.181Z,4.05
2022-11-01T22:14:14.388Z,4.22
2022-11-01T22:16:41.446Z,3.90
2022-11-01T22:19:08.451Z,3.70
2022-11-01T22:21:35.863Z,4.15
2022-11-01T22:24:03.918Z,4.25
2022-11-01T22:26:31.216Z,4.20
2022-11-01T22:28:58.454Z,4.30
2022-11-01T22:31:25.920Z,4.97
2022-11-01T22:33:54.252Z,3.72
2022-11-01T22:36:34.754Z,3.72
2022-11-01T22:39:07.097Z,3.80
2022-11-01T22:41:35.952Z,3.88
2022-11-01T22:44:05.787Z,3.67
2022-11-01T22:49:16.252Z,4.10
2022-11-01T22:51:50.567Z,3.47
2022-11-01T22:54:28.942Z,4.10
2022-11-01T22:57:09.930Z,4.20
2022-11-01T23:00:22.098Z,4.45
2022-11-01T23:02:49.243Z,4.60
2022-11-01T23:05:26.182Z,5.03
2022-11-01T23:07:55.839Z,4.45
2022-11-01T23:10:34.232Z,4.68
2022-11-01T23:13:48.852Z,4.15
2022-11-01T23:16:23.744Z,4.82
2022-11-01T23:18:52.702Z,5.03
2022-11-01T23:21:21.437Z,4.40
2022-11-01T23:23:49.088Z,4.07
2022-11-01T23:26:18.088Z,4.43
2022-11-01T23:28:51.982Z,3.75
2022-11-01T23:31:19.972Z,3.17
2022-11-01T23:33:49.115Z,3.83
2022-11-01T23:36:36.482Z,3.75
2022-11-01T23:39:11.805Z,3.58
2022-11-01T23:41:45.797Z,3.30
2022-11-01T23:44:45.594Z,3.30
2022-11-01T23:49:43.863Z,3.00
2022-11-01T23:52:33.377Z,3.78
2022-11-01T23:55:01.537Z,3.20
2022-11-01T23:57:28.795Z,3.42
2022-11-01T23:59:56.353Z,3.67
